Aérodrome :







RETROUVEZ-NOUS SUR...

 
LOGIN :

S'inscrire | Disclaimer

   EN    FR    IT 

 









Légende :    VFR   VFR Marginal   IFR   IFR Intensif   IFR Très Intensif
Visi : 
Plafond : 
>= 8 km
>= 3000ft
5 à 8 km
1000 à 3000 ft
1500m à 5 km
500 à 1000 ft
800 à 1500m
200 à 500 ft
< 800m
< 200 ft
Symboles :   Orages  Brouillard  Fortes neiges  Fortes précipitations  Vent > 20 kt






- Altitude de l'aérodrome : 100 ft
- Code IATA : PSM


KPSM - Portsmouth International at Pease

DERNIER METAR :
  • 241256Z 01003KT 10SM SCT180 BKN250 M02/M09 A3041 RMK AO2A SLP302 T10231090

METARs EXPIRÉS :
  • 241156Z 35004KT 10SM FEW140 SCT170 OVC0200 M02/M09 A3038 RMK AO2A SLP292 4/003 T10251094 11011 21048 52014
  • 241056Z 34005KT 10SM FEW140 OVC200 M02/M08 A3037 RMK AO2A SLP288 T10191082
  • 240956Z 33005KT 10SM FEW140 OVC200 M03/M08 A3034 RMK AO2A SLP278 T10261085

TAF KPSM
Valide du 24 à 12h jusqu'au 25 à 12h UTC


241130Z 2412/2512 VRB04KT P6SM BKN150
FM241500 04005KT P6SM SCT150
FM242000 05006KT P6SM BKN015
FM250000 04005KT 6SM BR OVC008
FM250800 VRB04KT 4SM -DZ BR OVC005



MET'MAP, la Météo Aéronautique d'un coup d'oeil ! - Copyright ORBIFLY Décembre 2007 - Disclaimer

ORBIFLY MET'MAP TEAM :

Programmation & Développement : Alexandra Zaïnal
Sur une idée originale de : Baudouin d'Aumeries
Assistance à la programmation : Marc-Olivier Méhu
Soutien technique & logistique : Manuel Goepfert

Contact : metmap@orbifly.com




SOURCES & CREDITS :

   NOAA